CheckWX is a tool to help pilots better visualize weather data.  It is not intended as a substitute for an official pre-flight weather briefing.

01:29:22 UTC

URKK TAF
Krasnodar International Airport
Krasnodar, Russian Federation
TAF URKK 232255Z 2400/2424 36005G10MPS 3100 BR BKN006 BKN020 TEMPO 2400/2406 0300 -FZRA FZFG OVC002 FM240800 05005G12MPS 9999 BKN020CB

Feb-24@
00:00 UTC

Feb-24 @ 00:00 UTC

Feb-24@
08:00 UTC

Feb-24 @ 08:00 UTC

TAF URKK 232255Z 2400/2424 36005G10MPS 3100 BR BKN006 BKN020
Wind
  • 360° at 10 KTS
  • {Gusting to 19 KTS
Conditions
Mist
Cloud Levels
  • Broken at 600' AGL
  • Broken at 2,000' AGL

Feb-24@
00:00 UTC

Feb-24 @ 00:00 UTC

Feb-24@
06:00 UTC

Feb-24 @ 06:00 UTC

TEMPO 2400/2406 0300 -FZRA FZFG OVC002

Temporary

Temporary Changes expected for less than half the time period

Conditions
Light Freezing Light Rain, Freezing Fog
Cloud Levels
  • Overcast at 200' AGL

Feb-24@
08:00 UTC

Feb-24 @ 08:00 UTC

Feb-25@
00:00 UTC

Feb-25 @ 00:00 UTC

FM240800 05005G12MPS 9999 BKN020CB

From

From Standard forecast or significant change

Wind
  • 050° at 10 KTS
  • {Gusting to 23 KTS
Cloud Levels
  • Broken at 2,000' AGL